Time;durP1;ratioP1;P1;durP2;ratioP2;P2;SDS_P1;SDS_P2;PMS_P1;PMS_P2;Temp;Humidity;BMP_temperature;BMP_pressure;BME280_temperature;BME280_humidity;BME280_pressure;Samples;Min_cycle;Max_cycle;Signal;HPM_P1;HPM_P2
2023/02/04 00:00:10;;;;;;;14.93;3.22;;;;;;;6.74;100.00;102255.00;694644;28;1202;-64
2023/02/04 00:00:36;;;;;;;15.40;3.47;;;;;;;6.70;100.00;102253.13;696739;28;1146;-66
2023/02/04 00:00:56;;;;;;;18.25;3.90;;;;;;;6.77;100.00;102250.81;696992;28;4278;-66
2023/02/04 00:01:16;;;;;;;18.33;4.20;;;;;;;6.75;100.00;102257.66;697299;28;1412;-66
2023/02/04 00:01:37;;;;;;;17.93;3.80;;;;;;;6.79;100.00;102251.75;698010;28;935;-66
2023/02/04 00:01:57;;;;;;;16.70;3.70;;;;;;;6.86;100.00;102251.97;697139;28;1471;-66
2023/02/04 00:02:17;;;;;;;15.73;3.90;;;;;;;6.81;100.00;102257.00;697543;28;1192;-65
2023/02/04 00:02:39;;;;;;;17.57;4.10;;;;;;;6.76;100.00;102255.97;696635;28;1431;-65
2023/02/04 00:02:59;;;;;;;17.80;3.53;;;;;;;6.69;100.00;102260.06;697319;28;1567;-66
2023/02/04 00:03:20;;;;;;;16.57;3.50;;;;;;;6.73;100.00;102255.84;697139;28;1282;-67
2023/02/04 00:03:40;;;;;;;16.02;3.60;;;;;;;6.72;100.00;102256.69;696241;28;4310;-66
2023/02/04 00:04:01;;;;;;;15.63;3.80;;;;;;;6.69;100.00;102248.75;693111;28;1609;-65
2023/02/04 00:04:21;;;;;;;16.40;3.65;;;;;;;6.65;100.00;102258.16;694397;28;1496;-66
2023/02/04 00:04:41;;;;;;;17.40;3.93;;;;;;;6.63;100.00;102257.22;694465;28;1471;-66
2023/02/04 00:05:02;;;;;;;16.98;3.40;;;;;;;6.59;100.00;102263.13;690956;28;1477;-66
2023/02/04 00:05:22;;;;;;;16.83;3.97;;;;;;;6.54;100.00;102251.69;691512;28;1564;-65
2023/02/04 00:05:42;;;;;;;15.70;3.60;;;;;;;6.53;100.00;102250.78;690668;28;2195;-66
2023/02/04 00:06:03;;;;;;;14.38;3.92;;;;;;;6.51;100.00;102257.66;692320;28;2153;-67
2023/02/04 00:06:23;;;;;;;16.20;3.90;;;;;;;6.48;100.00;102260.16;694758;28;1579;-67
2023/02/04 00:06:44;;;;;;;16.73;3.67;;;;;;;6.46;100.00;102259.19;694340;28;4890;-66
2023/02/04 00:07:04;;;;;;;16.42;3.92;;;;;;;6.45;100.00;102265.19;695178;28;1191;-65
2023/02/04 00:07:25;;;;;;;16.93;3.83;;;;;;;6.50;100.00;102265.41;697057;28;1237;-66
2023/02/04 00:07:45;;;;;;;16.45;3.70;;;;;;;6.54;100.00;102259.50;696809;28;1381;-65
2023/02/04 00:08:06;;;;;;;18.10;3.87;;;;;;;6.61;100.00;102264.94;696510;28;1420;-66
2023/02/04 00:08:26;;;;;;;20.67;3.90;;;;;;;6.60;100.00;102264.91;697015;28;1227;-64
2023/02/04 00:08:47;;;;;;;17.30;3.80;;;;;;;6.60;100.00;102270.09;695876;28;1286;-66
2023/02/04 00:09:07;;;;;;;15.35;3.90;;;;;;;6.56;100.00;102269.13;697441;28;1258;-66
2023/02/04 00:09:28;;;;;;;16.65;3.80;;;;;;;6.59;100.00;102270.91;697004;28;1301;-66
2023/02/04 00:09:48;;;;;;;16.80;3.60;;;;;;;6.68;100.00;102265.19;697057;28;4467;-65
2023/02/04 00:10:09;;;;;;;16.92;3.85;;;;;;;6.70;100.00;102269.63;697149;28;1258;-65
2023/02/04 00:10:29;;;;;;;20.00;3.93;;;;;;;6.69;100.00;102266.94;697769;28;1362;-66
2023/02/04 00:10:50;;;;;;;18.45;3.63;;;;;;;6.71;100.00;102273.97;697701;28;1412;-65
2023/02/04 00:11:10;;;;;;;16.37;3.90;;;;;;;6.67;100.00;102272.09;696066;28;1126;-66
2023/02/04 00:11:30;;;;;;;14.93;3.50;;;;;;;6.68;100.00;102267.78;696412;28;1349;-66
2023/02/04 00:11:51;;;;;;;13.33;3.50;;;;;;;6.63;100.00;102270.19;696657;28;1278;-65
2023/02/04 00:12:13;;;;;;;16.03;4.00;;;;;;;6.60;100.00;102278.75;696936;28;1179;-66
2023/02/04 00:12:33;;;;;;;16.10;3.95;;;;;;;6.60;100.00;102270.09;697614;28;1380;-66
2023/02/04 00:12:53;;;;;;;16.90;3.92;;;;;;;6.67;100.00;102266.88;696695;28;4916;-64
2023/02/04 00:13:14;;;;;;;15.70;3.60;;;;;;;6.67;100.00;102271.22;696428;28;1977;-68
2023/02/04 00:13:34;;;;;;;16.25;3.65;;;;;;;6.63;100.00;102272.81;696094;28;1511;-66
2023/02/04 00:13:55;;;;;;;18.27;3.67;;;;;;;6.65;100.00;102276.34;696959;28;1340;-64
2023/02/04 00:14:15;;;;;;;17.30;3.90;;;;;;;6.67;100.00;102273.81;696673;28;1302;-66
2023/02/04 00:14:35;;;;;;;15.67;3.77;;;;;;;6.64;100.00;102274.56;696765;28;1161;-65
2023/02/04 00:14:56;;;;;;;16.15;3.42;;;;;;;6.66;100.00;102270.34;696725;28;1450;-65
2023/02/04 00:15:16;;;;;;;18.60;3.80;;;;;;;6.73;100.00;102266.22;696635;28;1322;-66
2023/02/04 00:15:37;;;;;;;15.33;3.50;;;;;;;6.70;100.00;102271.31;696973;28;1289;-66
2023/02/04 00:15:57;;;;;;;17.37;4.00;;;;;;;6.66;100.00;102270.34;696219;28;4377;-66
2023/02/04 00:16:17;;;;;;;17.37;3.90;;;;;;;6.62;100.00;102273.66;697063;28;1385;-67
2023/02/04 00:16:38;;;;;;;17.10;4.03;;;;;;;6.59;100.00;102278.72;696325;28;1367;-67
2023/02/04 00:16:58;;;;;;;15.63;3.90;;;;;;;6.54;100.00;102270.75;696791;28;963;-65
2023/02/04 00:17:18;;;;;;;14.65;3.75;;;;;;;6.52;100.00;102282.81;695337;28;1483;-64
2023/02/04 00:17:39;;;;;;;18.20;3.83;;;;;;;6.50;100.00;102278.38;695216;28;1424;-66
2023/02/04 00:18:02;;;;;;;19.50;3.97;;;;;;;6.57;100.00;102269.97;694382;28;1531;-65
2023/02/04 00:18:23;;;;;;;17.92;3.80;;;;;;;6.67;100.00;102276.41;694949;28;1428;-65
2023/02/04 00:18:43;;;;;;;13.33;3.40;;;;;;;6.81;100.00;102275.19;694890;28;4295;-65
2023/02/04 00:19:03;;;;;;;15.43;3.60;;;;;;;6.79;100.00;102277.75;695182;28;1515;-66
2023/02/04 00:19:24;;;;;;;15.80;3.67;;;;;;;6.72;100.00;102280.06;697226;28;1440;-67
2023/02/04 00:19:44;;;;;;;14.57;3.38;;;;;;;6.64;100.00;102279.78;692990;28;1150;-66
2023/02/04 00:20:05;;;;;;;16.23;3.67;;;;;;;6.57;100.00;102280.38;693502;28;3789;-64
2023/02/04 00:20:25;;;;;;;17.10;3.60;;;;;;;6.60;100.00;102285.69;693678;28;1294;-65
2023/02/04 00:20:46;;;;;;;16.20;3.60;;;;;;;6.57;100.00;102288.19;694277;28;1302;-66
2023/02/04 00:21:06;;;;;;;15.77;3.90;;;;;;;6.52;100.00;102281.91;691625;28;1252;-65
2023/02/04 00:21:27;;;;;;;17.73;4.10;;;;;;;6.51;100.00;102287.94;689450;28;1184;-67
2023/02/04 00:21:47;;;;;;;17.00;3.67;;;;;;;6.48;100.00;102289.59;691540;28;4506;-65
2023/02/04 00:22:08;;;;;;;16.83;3.63;;;;;;;6.62;100.00;102289.25;691976;28;1210;-64
2023/02/04 00:22:28;;;;;;;17.17;3.47;;;;;;;6.57;100.00;102289.06;690829;28;1372;-66
2023/02/04 00:22:50;;;;;;;16.52;3.55;;;;;;;6.53;100.00;102288.88;693051;28;1376;-66
2023/02/04 00:23:10;;;;;;;18.35;3.80;;;;;;;6.48;100.00;102287.00;693488;28;1244;-64
2023/02/04 00:23:30;;;;;;;16.63;3.80;;;;;;;6.55;100.00;102284.63;695209;28;1436;-63
2023/02/04 00:23:51;;;;;;;17.30;4.00;;;;;;;6.64;100.00;102285.84;695379;28;1317;-66
2023/02/04 00:24:11;;;;;;;18.67;3.70;;;;;;;6.59;100.00;102286.50;694545;28;1143;-66
2023/02/04 00:24:32;;;;;;;15.17;3.53;;;;;;;6.52;100.00;102281.91;694853;28;1302;-67
2023/02/04 00:24:53;;;;;;;14.27;3.45;;;;;;;6.55;100.00;102292.41;694011;28;4431;-66
2023/02/04 00:25:14;;;;;;;14.35;3.40;;;;;;;6.53;100.00;102284.56;693691;28;1202;-66
2023/02/04 00:25:34;;;;;;;16.88;3.67;;;;;;;6.62;100.00;102281.44;694916;28;1372;-65
2023/02/04 00:25:54;;;;;;;15.40;3.80;;;;;;;6.61;100.00;102280.53;695400;28;1329;-65
2023/02/04 00:26:15;;;;;;;17.43;4.47;;;;;;;6.57;100.00;102282.97;696354;28;1350;-64
2023/02/04 00:26:35;;;;;;;16.00;4.10;;;;;;;6.53;100.00;102284.56;694471;28;1230;-66
2023/02/04 00:26:56;;;;;;;16.02;3.42;;;;;;;6.48;100.00;102280.94;693735;28;1393;-67
2023/02/04 00:27:16;;;;;;;15.80;3.40;;;;;;;6.50;100.00;102283.59;693646;28;1416;-66
2023/02/04 00:27:37;;;;;;;18.75;3.72;;;;;;;6.51;100.00;102283.63;692579;28;1603;-67
2023/02/04 00:27:58;;;;;;;17.35;3.40;;;;;;;6.50;100.00;102288.78;689037;28;4352;-67
2023/02/04 00:28:18;;;;;;;16.80;3.77;;;;;;;6.46;100.00;102286.03;690105;28;1443;-67
2023/02/04 00:28:39;;;;;;;17.65;3.85;;;;;;;6.44;100.00;102290.31;689655;28;1338;-65
2023/02/04 00:28:59;;;;;;;16.67;3.60;;;;;;;6.43;100.00;102283.31;689722;28;1397;-65
2023/02/04 00:29:20;;;;;;;15.37;3.63;;;;;;;6.50;100.00;102283.59;689561;28;1251;-66
2023/02/04 00:29:40;;;;;;;16.07;3.40;;;;;;;6.46;100.00;102283.44;689779;28;911;-66
2023/02/04 00:30:02;;;;;;;15.93;3.43;;;;;;;6.48;100.00;102286.13;689727;28;1441;-65
2023/02/04 00:30:22;;;;;;;18.00;3.78;;;;;;;6.46;100.00;102287.75;690194;28;1505;-66
2023/02/04 00:30:44;;;;;;;17.57;3.53;;;;;;;6.44;100.00;102279.91;691924;28;4269;-66
2023/02/04 00:31:04;;;;;;;15.70;3.45;;;;;;;6.44;100.00;102284.25;692529;28;1638;-66
2023/02/04 00:31:25;;;;;;;19.63;4.10;;;;;;;6.42;100.00;102283.28;694307;28;1353;-66
2023/02/04 00:31:45;;;;;;;18.90;3.83;;;;;;;6.40;100.00;102288.41;694164;28;1373;-65
2023/02/04 00:32:05;;;;;;;14.27;3.33;;;;;;;6.41;100.00;102290.19;692669;28;1265;-66
2023/02/04 00:32:26;;;;;;;15.02;3.80;;;;;;;6.41;100.00;102285.00;694674;28;1318;-66
2023/02/04 00:32:48;;;;;;;16.65;3.90;;;;;;;6.50;100.00;102287.06;692573;28;1267;-66
2023/02/04 00:33:08;;;;;;;15.43;4.00;;;;;;;6.57;100.00;102290.78;692578;28;1254;-65
2023/02/04 00:33:29;;;;;;;13.93;3.42;;;;;;;6.56;100.00;102291.59;693637;28;1914;-65
2023/02/04 00:33:49;;;;;;;16.10;3.57;;;;;;;6.54;100.00;102295.88;690727;28;4440;-66
2023/02/04 00:34:09;;;;;;;17.95;3.78;;;;;;;6.53;100.00;102286.28;688722;28;1841;-66
2023/02/04 00:34:30;;;;;;;16.07;3.60;;;;;;;6.50;100.00;102288.78;685630;28;1351;-65
2023/02/04 00:34:52;;;;;;;14.45;3.50;;;;;;;6.46;100.00;102291.22;689873;28;1335;-66
2023/02/04 00:35:13;;;;;;;15.52;3.92;;;;;;;6.47;100.00;102292.13;687636;28;1281;-66
2023/02/04 00:35:36;;;;;;;14.37;3.90;;;;;;;6.58;100.00;102292.56;688448;28;1327;-65
2023/02/04 00:35:56;;;;;;;15.25;3.58;;;;;;;6.74;100.00;102287.09;690359;28;1432;-64
2023/02/04 00:36:17;;;;;;;16.67;4.30;;;;;;;6.66;100.00;102285.94;693912;28;1369;-63
2023/02/04 00:36:38;;;;;;;15.98;4.00;;;;;;;6.68;100.00;102289.47;693174;28;1330;-65
2023/02/04 00:36:58;;;;;;;16.25;3.83;;;;;;;6.63;100.00;102284.09;692227;28;4302;-67
2023/02/04 00:37:18;;;;;;;14.93;3.63;;;;;;;6.68;100.00;102289.47;685665;28;1399;-65
2023/02/04 00:37:39;;;;;;;17.55;3.67;;;;;;;6.75;100.00;102287.97;685319;28;1537;-64
2023/02/04 00:37:59;;;;;;;15.93;3.50;;;;;;;6.76;100.00;102285.44;688151;28;1295;-65
2023/02/04 00:38:20;;;;;;;16.02;3.90;;;;;;;6.79;100.00;102289.88;687880;28;1409;-65
2023/02/04 00:38:40;;;;;;;15.23;4.00;;;;;;;6.78;100.00;102286.38;691982;28;1298;-66
2023/02/04 00:39:00;;;;;;;16.13;4.17;;;;;;;6.74;100.00;102284.50;692197;28;5025;-66
2023/02/04 00:39:21;;;;;;;14.33;3.60;;;;;;;6.70;100.00;102289.50;696972;28;1322;-67
2023/02/04 00:39:41;;;;;;;15.83;3.60;;;;;;;6.65;100.00;102290.22;695977;28;4949;-65
2023/02/04 00:40:01;;;;;;;16.13;3.70;;;;;;;6.61;100.00;102293.53;694603;28;1419;-66
2023/02/04 00:40:23;;;;;;;14.65;3.70;;;;;;;6.56;100.00;102289.91;693262;28;1368;-67
2023/02/04 00:40:43;;;;;;;17.38;4.03;;;;;;;6.52;100.00;102287.09;694350;28;1246;-66
2023/02/04 00:41:05;;;;;;;17.10;3.63;;;;;;;6.50;100.00;102289.66;694286;28;1164;-66
2023/02/04 00:41:25;;;;;;;18.45;4.22;;;;;;;6.54;100.00;102286.34;694369;28;1781;-67
2023/02/04 00:41:46;;;;;;;16.57;3.97;;;;;;;6.53;100.00;102288.88;694017;28;1257;-65
2023/02/04 00:42:07;;;;;;;18.80;4.28;;;;;;;6.52;100.00;102292.31;695082;28;2087;-65
2023/02/04 00:42:29;;;;;;;19.42;4.05;;;;;;;6.47;100.00;102285.22;693889;28;1373;-66
2023/02/04 00:42:51;;;;;;;19.00;4.25;;;;;;;6.45;100.00;102292.09;693420;28;4519;-66
2023/02/04 00:43:12;;;;;;;18.92;4.13;;;;;;;6.51;100.00;102287.94;689294;28;1173;-66
2023/02/04 00:43:32;;;;;;;18.33;4.00;;;;;;;6.53;100.00;102281.97;692542;28;1294;-66
2023/02/04 00:43:53;;;;;;;17.27;3.78;;;;;;;6.53;100.00;102289.75;689170;28;1333;-64
2023/02/04 00:44:13;;;;;;;14.77;3.67;;;;;;;6.50;100.00;102278.38;688119;28;1212;-67
2023/02/04 00:44:35;;;;;;;16.40;3.77;;;;;;;6.48;100.00;102279.22;689858;28;1410;-66
2023/02/04 00:44:55;;;;;;;17.60;3.70;;;;;;;6.53;100.00;102275.91;690277;28;1014;-63
2023/02/04 00:45:17;;;;;;;15.70;4.03;;;;;;;6.56;100.00;102283.78;693545;28;1140;-68
2023/02/04 00:45:38;;;;;;;15.30;3.78;;;;;;;6.56;100.00;102281.19;695588;28;1298;-67
2023/02/04 00:45:58;;;;;;;16.10;3.97;;;;;;;6.50;100.00;102284.44;695663;28;4786;-67
2023/02/04 00:46:19;;;;;;;20.10;4.50;;;;;;;6.44;100.00;102286.84;696201;28;1241;-67
2023/02/04 00:46:41;;;;;;;19.17;4.30;;;;;;;6.42;100.00;102291.94;697987;28;1211;-64
2023/02/04 00:47:01;;;;;;;17.50;4.10;;;;;;;6.43;100.00;102287.66;697261;28;1157;-65
2023/02/04 00:47:23;;;;;;;17.90;4.07;;;;;;;6.46;100.00;102283.44;691190;28;1306;-66
2023/02/04 00:47:43;;;;;;;20.13;4.70;;;;;;;6.46;100.00;102293.84;692305;28;1215;-66
2023/02/04 00:48:05;;;;;;;20.55;4.82;;;;;;;6.56;100.00;102289.91;689363;28;1421;-64
2023/02/04 00:48:27;;;;;;;17.85;4.05;;;;;;;6.53;100.00;102294.97;689518;28;1310;-66
2023/02/04 00:48:47;;;;;;;16.38;3.75;;;;;;;6.57;100.00;102291.66;688781;28;4340;-65
2023/02/04 00:49:09;;;;;;;15.23;3.67;;;;;;;6.66;100.00;102288.53;687489;28;1243;-65
2023/02/04 00:49:30;;;;;;;18.27;4.20;;;;;;;6.60;100.00;102286.56;692391;28;1294;-66
2023/02/04 00:49:50;;;;;;;18.30;4.20;;;;;;;6.64;100.00;102282.38;693015;28;849;-66
2023/02/04 00:50:11;;;;;;;15.80;4.10;;;;;;;6.62;100.00;102290.13;694177;28;1206;-63
2023/02/04 00:50:33;;;;;;;17.07;4.10;;;;;;;6.57;100.00;102288.19;694389;28;1281;-66
2023/02/04 00:50:54;;;;;;;17.67;4.00;;;;;;;6.51;100.00;102291.44;694445;28;1445;-66
2023/02/04 00:51:14;;;;;;;17.67;3.90;;;;;;;6.48;100.00;102299.13;696685;28;1171;-64
2023/02/04 00:51:38;;;;;;;17.30;3.67;;;;;;;6.42;100.00;102291.94;694516;28;1301;-67
2023/02/04 00:51:59;;;;;;;15.38;3.80;;;;;;;6.44;100.00;102289.44;693110;28;4695;-66
2023/02/04 00:52:19;;;;;;;17.58;3.90;;;;;;;6.46;100.00;102288.63;692339;28;1329;-64
2023/02/04 00:52:40;;;;;;;16.85;3.75;;;;;;;6.46;100.00;102292.97;689250;28;1362;-64
2023/02/04 00:53:03;;;;;;;15.40;3.65;;;;;;;6.43;100.00;102293.72;689570;28;1190;-65
2023/02/04 00:53:24;;;;;;;16.80;3.90;;;;;;;6.42;100.00;102284.16;689849;28;1914;-66
2023/02/04 00:53:44;;;;;;;21.40;4.10;;;;;;;6.41;100.00;102289.28;691507;28;1011;-66
2023/02/04 00:54:06;;;;;;;16.57;3.73;;;;;;;6.45;100.00;102280.78;691176;28;1064;-65
2023/02/04 00:54:27;;;;;;;16.27;3.88;;;;;;;6.43;100.00;102287.66;693617;28;1354;-66
2023/02/04 00:54:47;;;;;;;15.77;3.60;;;;;;;6.40;100.00;102284.94;690614;28;4774;-66
2023/02/04 00:55:10;;;;;;;16.13;4.10;;;;;;;6.41;100.00;102287.59;691704;28;1057;-66
2023/02/04 00:55:31;;;;;;;16.10;4.18;;;;;;;6.40;100.00;102293.59;690270;28;1131;-64
2023/02/04 00:55:52;;;;;;;14.77;3.55;;;;;;;6.42;100.00;102286.75;691208;28;1298;-66
2023/02/04 00:56:12;;;;;;;16.98;3.80;;;;;;;6.41;100.00;102291.88;691041;28;1204;-66
2023/02/04 00:56:33;;;;;;;15.67;3.97;;;;;;;6.35;100.00;102284.75;689806;28;1615;-64
2023/02/04 00:56:54;;;;;;;17.63;3.85;;;;;;;6.33;100.00;102285.50;692770;28;889;-66
2023/02/04 00:57:14;;;;;;;18.13;4.30;;;;;;;6.39;100.00;102291.84;691700;28;1158;-65
2023/02/04 00:57:35;;;;;;;17.92;4.10;;;;;;;6.45;100.00;102285.97;692006;28;1309;-67
2023/02/04 00:57:55;;;;;;;16.00;3.97;;;;;;;6.42;100.00;102281.56;688201;28;4720;-65
2023/02/04 00:58:15;;;;;;;16.10;3.83;;;;;;;6.40;100.00;102285.81;689717;28;1502;-66
2023/02/04 00:58:36;;;;;;;16.93;3.97;;;;;;;6.42;100.00;102285.88;692017;28;1483;-65
2023/02/04 00:58:56;;;;;;;19.83;4.60;;;;;;;6.41;100.00;102290.19;688142;28;1227;-65
2023/02/04 00:59:17;;;;;;;20.43;4.80;;;;;;;6.52;100.00;102292.31;688685;28;1242;-62
2023/02/04 00:59:37;;;;;;;19.52;4.00;;;;;;;6.55;100.00;102290.72;689610;28;1231;-66
2023/02/04 00:59:57;;;;;;;18.37;3.80;;;;;;;6.57;100.00;102294.25;692529;28;1252;-66
2023/02/04 01:00:18;;;;;;;19.90;3.90;;;;;;;6.62;100.00;102297.03;689530;28;1293;-65
2023/02/04 01:00:38;;;;;;;15.03;3.93;;;;;;;6.62;100.00;102297.03;689338;28;1576;-65
2023/02/04 01:00:59;;;;;;;13.43;3.80;;;;;;;6.82;100.00;102292.56;691206;28;4817;-62
2023/02/04 01:01:19;;;;;;;14.00;3.60;;;;;;;6.73;100.00;102298.31;692704;28;1341;-66
2023/02/04 01:01:41;;;;;;;17.25;4.30;;;;;;;6.73;100.00;102300.91;692406;28;1286;-65
2023/02/04 01:02:01;;;;;;;17.23;4.30;;;;;;;6.69;100.00;102305.94;689770;28;1224;-65
2023/02/04 01:02:22;;;;;;;18.10;4.85;;;;;;;6.69;100.00;102300.72;692563;28;1214;-65
2023/02/04 01:02:43;;;;;;;15.77;4.20;;;;;;;6.60;100.00;102302.16;689092;28;1302;-65
2023/02/04 01:03:03;;;;;;;17.05;4.10;;;;;;;6.53;100.00;102304.47;686369;28;1018;-66
2023/02/04 01:03:23;;;;;;;17.27;3.63;;;;;;;6.51;100.00;102306.13;687526;28;1575;-66
2023/02/04 01:03:44;;;;;;;16.33;3.95;;;;;;;6.54;100.00;102301.06;689085;28;4573;-65
2023/02/04 01:04:04;;;;;;;20.53;4.13;;;;;;;6.52;100.00;102302.69;688053;28;1100;-66
2023/02/04 01:04:26;;;;;;;16.40;3.83;;;;;;;6.53;100.00;102301.88;687690;28;1290;-65
2023/02/04 01:04:47;;;;;;;17.73;4.00;;;;;;;6.46;100.00;102304.22;690495;28;1345;-66
2023/02/04 01:05:08;;;;;;;19.23;4.43;;;;;;;6.43;100.00;102303.25;689890;28;1118;-67
2023/02/04 01:05:28;;;;;;;16.85;4.25;;;;;;;6.45;100.00;102297.28;686118;28;1334;-65
2023/02/04 01:05:49;;;;;;;16.08;3.58;;;;;;;6.48;100.00;102301.72;686691;28;1362;-67
2023/02/04 01:06:10;;;;;;;16.43;3.40;;;;;;;6.41;100.00;102295.38;689672;28;1320;-66
2023/02/04 01:06:31;;;;;;;17.65;4.22;;;;;;;6.39;100.00;102299.63;692096;28;1176;-65
2023/02/04 01:06:51;;;;;;;18.97;4.30;;;;;;;6.38;100.00;102300.44;690724;28;4331;-66
2023/02/04 01:07:11;;;;;;;18.70;4.37;;;;;;;6.33;100.00;102306.28;688965;28;1288;-67
2023/02/04 01:07:32;;;;;;;16.43;3.90;;;;;;;6.30;100.00;102299.28;689023;28;1268;-66
2023/02/04 01:07:52;;;;;;;14.40;3.63;;;;;;;6.28;100.00;102296.59;689378;28;1157;-67
2023/02/04 01:08:13;;;;;;;18.30;3.93;;;;;;;6.26;100.00;102295.69;688799;28;1289;-66
2023/02/04 01:08:33;;;;;;;19.33;4.07;;;;;;;6.26;100.00;102295.69;688877;28;1026;-67
2023/02/04 01:08:54;;;;;;;17.73;4.30;;;;;;;6.24;100.00;102297.31;689812;28;1137;-67
2023/02/04 01:09:14;;;;;;;14.75;3.95;;;;;;;6.24;100.00;102302.50;691924;28;1219;-67
2023/02/04 01:09:36;;;;;;;15.05;3.75;;;;;;;6.25;100.00;102295.63;692224;28;1777;-66
2023/02/04 01:09:57;;;;;;;18.70;4.20;;;;;;;6.28;100.00;102301.78;691956;28;4361;-65
2023/02/04 01:10:18;;;;;;;17.63;3.78;;;;;;;6.28;100.00;102303.53;695053;28;1305;-66
2023/02/04 01:10:38;;;;;;;15.97;4.13;;;;;;;6.26;100.00;102306.06;695164;28;1111;-67
2023/02/04 01:10:59;;;;;;;17.75;4.10;;;;;;;6.26;100.00;102298.28;692566;28;1177;-66
2023/02/04 01:11:19;;;;;;;15.43;4.00;;;;;;;6.29;100.00;102292.31;692286;28;1242;-66
2023/02/04 01:11:39;;;;;;;14.65;3.65;;;;;;;6.29;100.00;102292.31;693926;28;1289;-66
2023/02/04 01:12:00;;;;;;;17.07;3.73;;;;;;;6.27;100.00;102296.53;694720;28;1143;-66
2023/02/04 01:12:21;;;;;;;19.02;3.90;;;;;;;6.26;100.00;102300.00;694785;28;1297;-66
2023/02/04 01:12:42;;;;;;;16.90;3.88;;;;;;;6.25;100.00;102299.09;692008;28;4397;-66
2023/02/04 01:13:03;;;;;;;17.50;4.10;;;;;;;6.30;100.00;102301.88;688769;28;1267;-66
2023/02/04 01:13:23;;;;;;;14.77;3.65;;;;;;;6.32;100.00;102296.75;690346;28;1997;-65
2023/02/04 01:13:44;;;;;;;14.47;3.70;;;;;;;6.41;100.00;102297.09;689282;28;1263;-67
2023/02/04 01:14:05;;;;;;;18.05;3.97;;;;;;;6.44;100.00;102305.03;688662;28;1124;-66
2023/02/04 01:14:26;;;;;;;17.00;3.77;;;;;;;6.42;100.00;102306.66;689183;28;1415;-66
2023/02/04 01:14:46;;;;;;;17.38;3.85;;;;;;;6.39;100.00;102302.22;690224;28;1227;-66
2023/02/04 01:15:07;;;;;;;17.43;3.80;;;;;;;6.35;100.00;102305.53;692134;28;1060;-66
2023/02/04 01:15:27;;;;;;;16.70;3.95;;;;;;;6.40;100.00;102301.41;692027;28;1250;-66
2023/02/04 01:15:48;;;;;;;16.17;3.70;;;;;;;6.47;100.00;102306.00;694543;28;4436;-66
2023/02/04 01:16:08;;;;;;;13.77;3.63;;;;;;;6.48;100.00;102307.78;691570;28;1456;-67
2023/02/04 01:16:29;;;;;;;17.33;3.90;;;;;;;6.46;100.00;102305.94;691785;28;3937;-66
2023/02/04 01:16:49;;;;;;;17.63;3.93;;;;;;;6.47;100.00;102303.41;691844;28;1266;-66
2023/02/04 01:17:10;;;;;;;18.17;3.92;;;;;;;6.45;100.00;102306.75;691841;28;1288;-66
2023/02/04 01:17:30;;;;;;;19.70;3.90;;;;;;;6.42;100.00;102312.72;692356;28;1449;-67
2023/02/04 01:17:50;;;;;;;17.52;4.03;;;;;;;6.39;100.00;102302.22;692138;28;1203;-64
2023/02/04 01:18:11;;;;;;;19.63;4.13;;;;;;;6.34;100.00;102301.19;692086;28;1171;-66
2023/02/04 01:18:31;;;;;;;16.38;3.67;;;;;;;6.41;100.00;102304.88;692312;28;1487;-66
2023/02/04 01:18:54;;;;;;;17.97;3.97;;;;;;;6.44;100.00;102310.22;691539;28;4645;-67
2023/02/04 01:19:15;;;;;;;17.50;3.65;;;;;;;6.39;100.00;102312.63;692347;28;1370;-66
2023/02/04 01:19:35;;;;;;;17.58;3.50;;;;;;;6.39;100.00;102307.41;691583;28;1449;-66
2023/02/04 01:19:55;;;;;;;18.03;3.90;;;;;;;6.46;100.00;102309.41;689399;28;1409;-64
2023/02/04 01:20:16;;;;;;;16.70;3.97;;;;;;;6.65;100.00;102310.16;684752;28;1443;-66
2023/02/04 01:20:36;;;;;;;18.53;3.77;;;;;;;6.50;100.00;102304.38;685916;28;1343;-63
2023/02/04 01:20:57;;;;;;;16.40;3.63;;;;;;;6.43;100.00;102308.44;686278;28;1274;-66
2023/02/04 01:21:17;;;;;;;15.97;3.50;;;;;;;6.46;100.00;102313.75;688190;28;1246;-66
2023/02/04 01:21:38;;;;;;;16.80;3.90;;;;;;;6.48;100.00;102309.50;688003;28;1330;-66
2023/02/04 01:21:58;;;;;;;14.60;3.60;;;;;;;6.53;100.00;102314.88;690919;28;5211;-66
2023/02/04 01:22:18;;;;;;;17.48;3.50;;;;;;;6.50;100.00;102312.16;691588;28;1369;-66
2023/02/04 01:22:39;;;;;;;18.40;3.80;;;;;;;6.46;100.00;102309.41;690762;28;1411;-65
2023/02/04 01:22:59;;;;;;;20.92;3.95;;;;;;;6.43;100.00;102313.63;691515;28;1210;-67
2023/02/04 01:23:20;;;;;;;16.00;3.50;;;;;;;6.39;100.00;102307.41;687378;28;1312;-66
2023/02/04 01:23:40;;;;;;;14.55;3.83;;;;;;;6.34;100.00;102308.97;692171;28;1517;-67
2023/02/04 01:24:02;;;;;;;18.92;3.83;;;;;;;6.31;100.00;102303.63;689646;28;1612;-66
2023/02/04 01:24:22;;;;;;;18.83;4.30;;;;;;;6.27;100.00;102309.53;692274;28;1818;-67
2023/02/04 01:25:09;;;;;;;17.52;3.75;;;;;;;6.25;100.00;102319.00;680915;28;5164;-66
2023/02/04 01:25:35;;;;;;;17.33;3.92;;;;;;;6.30;100.00;102309.69;681376;29;1455;-66
2023/02/04 01:25:56;;;;;;;17.13;4.10;;;;;;;6.35;100.00;102315.91;684927;28;1446;-66
2023/02/04 01:26:18;;;;;;;15.65;3.67;;;;;;;6.42;100.00;102322.25;689327;28;1318;-66
2023/02/04 01:26:38;;;;;;;17.05;3.85;;;;;;;6.43;100.00;102314.50;686622;28;1988;-66
2023/02/04 01:26:59;;;;;;;16.20;3.95;;;;;;;6.48;100.00;102318.19;685310;28;1229;-66
2023/02/04 01:27:19;;;;;;;21.30;4.13;;;;;;;6.47;100.00;102316.41;686086;28;1288;-65
2023/02/04 01:27:39;;;;;;;20.57;4.20;;;;;;;6.47;100.00;102324.19;689274;28;4800;-66
2023/02/04 01:28:00;;;;;;;17.13;3.67;;;;;;;6.44;100.00;102321.47;690624;28;1431;-65
2023/02/04 01:28:20;;;;;;;17.90;3.70;;;;;;;6.47;100.00;102325.91;693982;28;1180;-65
2023/02/04 01:28:41;;;;;;;14.53;3.43;;;;;;;6.53;100.00;102322.66;696307;28;1320;-66
2023/02/04 01:29:01;;;;;;;16.30;3.90;;;;;;;6.50;100.00;102322.56;697286;28;1178;-66
2023/02/04 01:29:21;;;;;;;16.40;3.75;;;;;;;6.50;100.00;102325.16;696156;28;1274;-66
2023/02/04 01:29:42;;;;;;;15.90;3.80;;;;;;;6.46;100.00;102330.19;696366;28;1238;-67
2023/02/04 01:30:04;;;;;;;15.88;3.35;;;;;;;6.43;100.00;102326.63;695991;28;1288;-66
2023/02/04 01:30:25;;;;;;;17.55;3.63;;;;;;;6.39;100.00;102327.31;693440;28;1274;-66
2023/02/04 01:30:45;;;;;;;14.60;3.72;;;;;;;6.46;100.00;102331.94;690365;28;5336;-65
2023/02/04 01:31:05;;;;;;;13.63;3.47;;;;;;;6.44;100.00;102323.19;688290;28;1213;-66
2023/02/04 01:31:27;;;;;;;15.10;3.67;;;;;;;6.54;100.00;102332.25;685169;28;1433;-66
2023/02/04 01:31:47;;;;;;;18.88;3.90;;;;;;;6.51;100.00;102324.31;684943;28;1307;-65
2023/02/04 01:32:07;;;;;;;20.27;3.90;;;;;;;6.44;100.00;102324.06;686059;28;1207;-66
2023/02/04 01:32:28;;;;;;;17.67;3.85;;;;;;;6.42;100.00;102330.03;688833;28;1302;-67
2023/02/04 01:32:48;;;;;;;17.03;3.50;;;;;;;6.38;100.00;102326.41;691958;28;1373;-66
2023/02/04 01:33:09;;;;;;;17.20;3.70;;;;;;;6.35;100.00;102328.03;694079;28;1158;-66
2023/02/04 01:33:29;;;;;;;17.40;3.80;;;;;;;6.31;100.00;102324.41;693778;28;1959;-66
2023/02/04 01:33:49;;;;;;;18.30;3.70;;;;;;;6.27;100.00;102327.72;691485;28;4547;-66
2023/02/04 01:34:11;;;;;;;15.73;3.72;;;;;;;6.26;100.00;102323.38;691905;28;1477;-66
2023/02/04 01:34:31;;;;;;;14.43;4.03;;;;;;;6.26;100.00;102333.75;689595;28;1396;-66
2023/02/04 01:34:52;;;;;;;16.07;4.00;;;;;;;6.30;100.00;102330.47;686765;28;1322;-67
2023/02/04 01:35:12;;;;;;;17.45;4.18;;;;;;;6.35;100.00;102325.44;685951;28;1359;-67
2023/02/04 01:35:33;;;;;;;17.07;3.60;;;;;;;6.39;100.00;102325.59;685895;28;1391;-66
2023/02/04 01:35:53;;;;;;;18.10;3.95;;;;;;;6.48;100.00;102323.38;686493;28;1498;-66
2023/02/04 01:36:20;;;;;;;19.10;4.17;;;;;;;6.50;100.00;102335.53;684266;28;1097;-66
2023/02/04 01:36:40;;;;;;;19.63;4.20;;;;;;;6.49;100.00;102339.84;686957;28;4504;-66
2023/02/04 01:37:01;;;;;;;16.58;3.60;;;;;;;6.52;100.00;102331.28;689577;28;1111;-65
2023/02/04 01:37:21;;;;;;;17.17;3.50;;;;;;;6.51;100.00;102329.50;691508;28;1376;-66
2023/02/04 01:37:41;;;;;;;19.03;3.80;;;;;;;6.49;100.00;102334.63;692284;28;1337;-66
2023/02/04 01:38:02;;;;;;;18.10;3.55;;;;;;;6.48;100.00;102332.88;688682;28;1408;-65